Hauptseite
METAR-TAF:

METAR-TAF

Flughäfen :

Brize Norton, England

RAF Brize Norton

Breite: 51-45N, Länge: 001-35W, Höhe: 88 m

Beobachtung

Neuester Wetterbericht von vor 33 Minuten, um 10:50 UTC
Wind 12 kt aus Südwest
Temperatur 9°C
Luftfeuchtigkeit 61%
Luftdruck 997 hPa
Sichtweite 10 km oder mehr
keine Wolken unter 1500 m und keine Kumulonimbus oder Gewitterwolken

METAR: EGVN 231050Z 22012KT CAVOK 09/02 Q0997 NOSIG

Zeit: 11:23 (11:23 UTC)

Prognose

Neuester Wetterbericht von vor 3 Stunden und 48 Minuten, um 07:35 UTC
Gültige Prognose vom 23 um 09 UTC bis 24 um 09 UTC
Wind 10 kt aus Südwest
Sichtweite 10 km oder mehr
Aufgelockert bewölkt in der Höhe von 3500 ft
Zeitweise
vom 23 um 09 UTC bis 23 um 16 UTC
Wind 16 kt aus West/Südwest, Böen bis zu 28 kt

TAF: EGVN 230735Z 2309/2409 23010KT 9999 SCT035 TEMPO 2309/2316 24016G28KT

Wetterbeobachtungen und Prognosen von mehr als 4000 Flughäfen (METAR und TAF Bericht).

Die verfügbaren Stationen werden durch gelbe und rote Markierungen auf der Karte dargestellt.

Führen Sie die Maus auf sie, um den Namen der Station zu sehen.

Darauf klicken, um die Beobachtung von Wetterbeobachtungen und Prognosen zu sehen.

Um die Karte zu ändern : klicken Sie auf den grünen Tasten mit einem schwarzen Kreuz Zum Vergrößern, auf den grünen Button mit einem Gedankenstrich zu verkleinern, oder auf die grünen Pfeile für benachbarte Karten.


METAR-TAF: